createdAt,value
2017-07-20T00:01:35.489Z,100362.17
2017-07-20T00:04:02.883Z,100347.97
2017-07-20T00:06:30.290Z,100352.41
2017-07-20T00:08:57.678Z,100353.58
2017-07-20T00:11:25.089Z,100357.81
2017-07-20T00:13:52.474Z,100350.29
2017-07-20T00:16:19.879Z,100354.08
2017-07-20T00:18:47.275Z,100359.61
2017-07-20T00:21:14.683Z,100357.09
2017-07-20T00:23:42.079Z,100353.97
2017-07-20T00:26:09.483Z,100343.94
2017-07-20T00:28:36.883Z,100337.88
2017-07-20T00:31:04.278Z,100331.45
2017-07-20T00:33:31.685Z,100335.41
2017-07-20T00:35:59.074Z,100333.80
2017-07-20T00:38:26.475Z,100329.41
2017-07-20T00:40:53.914Z,100326.19
2017-07-20T00:43:21.287Z,100318.20
2017-07-20T00:45:48.687Z,100318.47
2017-07-20T00:48:16.078Z,100315.77
2017-07-20T00:50:43.479Z,100317.85
2017-07-20T00:53:10.875Z,100303.67
2017-07-20T00:55:38.277Z,100302.13
2017-07-20T00:58:05.670Z,100302.33
2017-07-20T01:00:33.294Z,100306.62
2017-07-20T01:03:00.682Z,100308.44
2017-07-20T01:05:28.078Z,100299.75
2017-07-20T01:07:55.479Z,100297.28
2017-07-20T01:10:22.879Z,100289.94
2017-07-20T01:12:50.276Z,100293.24
2017-07-20T01:15:17.679Z,100298.91
2017-07-20T01:17:45.087Z,100292.14
2017-07-20T01:20:12.488Z,100288.00
2017-07-20T01:22:39.895Z,100295.35
2017-07-20T01:25:07.282Z,100293.64
2017-07-20T01:27:34.683Z,100293.24
2017-07-20T01:30:02.375Z,100281.19
2017-07-20T01:32:29.775Z,100271.33
2017-07-20T01:34:57.171Z,100269.98
2017-07-20T01:37:24.571Z,100260.62
2017-07-20T01:39:51.977Z,100261.91
2017-07-20T01:42:19.370Z,100263.95
2017-07-20T01:44:46.763Z,100264.79
2017-07-20T01:47:14.194Z,100266.14
2017-07-20T01:49:41.594Z,100268.71
2017-07-20T01:52:08.996Z,100262.97
2017-07-20T01:54:36.403Z,100256.42
2017-07-20T01:57:03.800Z,100252.23
2017-07-20T01:59:31.195Z,100252.05
2017-07-20T02:01:58.587Z,100242.48
2017-07-20T02:04:25.986Z,100246.72
2017-07-20T02:06:53.390Z,100243.91
2017-07-20T02:09:21.007Z,100245.41
2017-07-20T02:11:48.411Z,100246.08
2017-07-20T02:14:15.807Z,100239.05
2017-07-20T02:16:43.215Z,100234.02
2017-07-20T02:19:10.616Z,100225.07
2017-07-20T02:21:38.017Z,100230.68
2017-07-20T02:24:05.410Z,100232.85
2017-07-20T02:26:32.817Z,100228.36
2017-07-20T02:29:00.418Z,100223.02
2017-07-20T02:31:27.819Z,100214.75
2017-07-20T02:33:55.220Z,100211.26
2017-07-20T02:36:22.607Z,100206.68
2017-07-20T02:38:50.010Z,100205.84
2017-07-20T02:41:17.408Z,100199.22
2017-07-20T02:43:44.815Z,100197.44
2017-07-20T02:46:12.198Z,100204.02
2017-07-20T02:48:39.608Z,100217.52
2017-07-20T02:51:07.007Z,100217.42
2017-07-20T02:53:34.402Z,100221.94
2017-07-20T02:56:01.801Z,100239.38
2017-07-20T02:58:29.203Z,100249.42
2017-07-20T03:00:56.600Z,100256.22
2017-07-20T03:03:23.995Z,100252.59
2017-07-20T03:05:51.395Z,100242.80
2017-07-20T03:08:18.787Z,100237.45
2017-07-20T03:10:46.187Z,100234.53
2017-07-20T03:13:13.586Z,100230.35
2017-07-20T03:15:40.985Z,100220.89
2017-07-20T03:18:08.393Z,100211.70
2017-07-20T03:20:35.778Z,100208.32
2017-07-20T03:23:03.431Z,100198.80
2017-07-20T03:25:30.818Z,100207.86
2017-07-20T03:27:58.231Z,100211.59
2017-07-20T03:30:25.902Z,100212.89
2017-07-20T03:32:53.323Z,100213.57
2017-07-20T03:35:20.715Z,100223.44
2017-07-20T03:37:48.116Z,100218.72
2017-07-20T03:40:15.520Z,100210.63
2017-07-20T03:42:42.912Z,100198.22
2017-07-20T03:45:10.312Z,100194.55
2017-07-20T03:47:37.711Z,100192.69
2017-07-20T03:50:05.119Z,100185.56
2017-07-20T03:52:32.514Z,100175.88
2017-07-20T03:54:59.919Z,100167.69
2017-07-20T03:57:27.616Z,100167.89
2017-07-20T03:59:55.023Z,100165.66
2017-07-20T04:02:22.416Z,100173.63
2017-07-20T04:04:49.823Z,100175.37
2017-07-20T04:07:17.219Z,100194.16
2017-07-20T04:09:44.625Z,100192.84
2017-07-20T04:12:12.019Z,100186.23
2017-07-20T04:14:39.419Z,100180.64
2017-07-20T04:17:06.818Z,100186.88
2017-07-20T04:19:34.239Z,100183.06
2017-07-20T04:22:01.631Z,100189.68
2017-07-20T04:24:29.046Z,100198.06
2017-07-20T04:26:56.439Z,100201.26
2017-07-20T04:29:24.013Z,100201.71
2017-07-20T04:31:51.623Z,100204.88
2017-07-20T04:34:19.027Z,100197.69
2017-07-20T04:36:46.428Z,100199.70
2017-07-20T04:39:13.832Z,100195.16
2017-07-20T04:41:41.235Z,100196.72
2017-07-20T04:44:08.636Z,100195.73
2017-07-20T04:46:36.035Z,100200.44
2017-07-20T04:49:03.452Z,100187.67
2017-07-20T04:51:30.852Z,100181.52
2017-07-20T04:53:58.250Z,100187.00
2017-07-20T04:56:25.662Z,100192.11
2017-07-20T04:58:53.058Z,100206.31
2017-07-20T05:01:20.492Z,100222.19
2017-07-20T05:03:47.906Z,100222.34
2017-07-20T05:06:15.328Z,100214.33
2017-07-20T05:08:42.835Z,100204.88
2017-07-20T05:11:10.232Z,100204.38
2017-07-20T05:13:37.623Z,100216.42
2017-07-20T05:16:05.027Z,100220.34
2017-07-20T05:18:32.422Z,100206.11
2017-07-20T05:20:59.892Z,100195.47
2017-07-20T05:23:27.292Z,100193.44
2017-07-20T05:25:54.691Z,100194.77
2017-07-20T05:28:22.082Z,100196.01
2017-07-20T05:30:49.526Z,100193.72
2017-07-20T05:33:16.939Z,100182.89
2017-07-20T05:35:44.354Z,100166.66
2017-07-20T05:38:11.784Z,100180.63
2017-07-20T05:40:39.207Z,100180.66
2017-07-20T05:43:06.626Z,100179.08
2017-07-20T05:45:34.030Z,100186.71
2017-07-20T05:48:01.459Z,100177.77
2017-07-20T05:50:28.875Z,100175.69
2017-07-20T05:52:56.272Z,100171.42
2017-07-20T05:55:23.692Z,100178.48
2017-07-20T05:57:51.082Z,100166.11
2017-07-20T06:00:18.493Z,100160.88
2017-07-20T06:02:45.964Z,100163.64
2017-07-20T06:05:13.447Z,100166.55
2017-07-20T06:07:40.847Z,100163.42
2017-07-20T06:10:08.245Z,100163.42
2017-07-20T06:12:35.664Z,100162.76
2017-07-20T06:15:03.057Z,100162.59
2017-07-20T06:17:30.451Z,100163.49
2017-07-20T06:19:57.857Z,100174.18
2017-07-20T06:22:25.304Z,100167.59
2017-07-20T06:24:52.705Z,100171.02
2017-07-20T06:27:20.099Z,100176.13
2017-07-20T06:29:47.514Z,100176.35
2017-07-20T06:32:14.886Z,100166.25
2017-07-20T06:34:42.314Z,100169.06
2017-07-20T06:37:10.332Z,100170.16
2017-07-20T06:39:37.875Z,100174.09
2017-07-20T06:42:05.495Z,100186.55
2017-07-20T06:44:33.734Z,100195.47
2017-07-20T06:47:01.270Z,100206.19
2017-07-20T06:49:30.587Z,100218.95
2017-07-20T06:51:58.067Z,100225.67
2017-07-20T06:54:25.468Z,100239.13
2017-07-20T06:56:53.009Z,100244.37
2017-07-20T06:59:20.400Z,100233.73
2017-07-20T07:01:47.927Z,100221.48
2017-07-20T07:04:15.351Z,100237.39
2017-07-20T07:06:42.994Z,100244.77
2017-07-20T07:09:10.400Z,100217.98
2017-07-20T07:11:37.790Z,100234.61
2017-07-20T07:14:05.197Z,100227.98
2017-07-20T07:16:32.591Z,100224.66
2017-07-20T07:19:00.015Z,100245.22
2017-07-20T07:21:27.414Z,100251.24
2017-07-20T07:23:54.812Z,100262.17
2017-07-20T07:26:22.210Z,100260.28
2017-07-20T07:28:49.603Z,100276.45
2017-07-20T07:31:16.997Z,100285.94
2017-07-20T07:33:44.398Z,100270.84
2017-07-20T07:36:11.803Z,100279.62
2017-07-20T07:38:39.205Z,100304.77
2017-07-20T07:41:06.611Z,100294.34
2017-07-20T07:43:34.014Z,100295.49
2017-07-20T07:46:01.426Z,100301.36
2017-07-20T07:48:28.827Z,100274.69
2017-07-20T07:50:56.237Z,100296.97
2017-07-20T07:53:23.667Z,100290.23
2017-07-20T07:55:51.083Z,100286.30
2017-07-20T07:58:18.498Z,100287.58
2017-07-20T08:00:45.879Z,100286.95
2017-07-20T08:03:13.299Z,100292.86
2017-07-20T08:05:40.704Z,100293.66
2017-07-20T08:08:08.103Z,100289.13
2017-07-20T08:10:35.500Z,100280.22
2017-07-20T08:13:02.907Z,100279.91
2017-07-20T08:15:30.323Z,100280.63
2017-07-20T08:17:57.719Z,100285.77
2017-07-20T08:20:25.359Z,100291.71
2017-07-20T08:22:52.758Z,100291.67
2017-07-20T08:25:20.155Z,100285.50
2017-07-20T08:27:47.571Z,100287.89
2017-07-20T08:30:14.966Z,100283.31
2017-07-20T08:32:42.359Z,100283.55
2017-07-20T08:35:09.766Z,100286.12
2017-07-20T08:37:37.159Z,100279.94
2017-07-20T08:40:04.571Z,100279.42
2017-07-20T08:42:31.950Z,100291.89
2017-07-20T08:44:59.351Z,100296.35
2017-07-20T08:47:26.746Z,100299.80
2017-07-20T08:49:54.164Z,100292.30
2017-07-20T08:52:21.566Z,100293.71
2017-07-20T08:54:48.966Z,100300.70
2017-07-20T08:57:17.692Z,100302.04
2017-07-20T08:59:45.087Z,100302.81
2017-07-20T09:02:12.641Z,100293.44
2017-07-20T09:04:40.385Z,100287.91
2017-07-20T09:07:07.802Z,100281.28
2017-07-20T09:09:35.218Z,100290.14
2017-07-20T09:12:02.607Z,100284.11
2017-07-20T09:14:30.003Z,100273.26
2017-07-20T09:16:57.406Z,100258.27
2017-07-20T09:19:24.800Z,100261.00
2017-07-20T09:21:52.208Z,100268.81
2017-07-20T09:24:19.603Z,100264.79
2017-07-20T09:26:47.018Z,100261.80
2017-07-20T09:29:14.418Z,100255.09
2017-07-20T09:31:41.823Z,100252.55
2017-07-20T09:34:09.218Z,100257.41
2017-07-20T09:36:36.622Z,100256.17
2017-07-20T09:39:04.275Z,100263.81
2017-07-20T09:41:31.703Z,100271.89
2017-07-20T09:43:59.094Z,100269.40
2017-07-20T09:46:26.503Z,100271.61
2017-07-20T09:48:53.996Z,100272.55
2017-07-20T09:51:21.479Z,100262.05
2017-07-20T09:53:49.085Z,100260.45
2017-07-20T09:56:16.559Z,100262.45
2017-07-20T09:58:43.967Z,100275.08
2017-07-20T10:01:11.379Z,100270.50
2017-07-20T10:03:38.787Z,100264.92
2017-07-20T10:06:06.188Z,100267.91
2017-07-20T10:08:33.591Z,100263.60
2017-07-20T10:11:00.988Z,100276.21
2017-07-20T10:13:28.406Z,100268.17
2017-07-20T10:15:55.808Z,100266.34
2017-07-20T10:18:23.212Z,100273.84
2017-07-20T10:20:50.618Z,100277.66
2017-07-20T10:23:18.289Z,100282.80
2017-07-20T10:25:45.690Z,100277.42
2017-07-20T10:28:13.090Z,100275.53
2017-07-20T10:30:40.490Z,100273.22
2017-07-20T10:33:07.893Z,100264.95
2017-07-20T10:35:35.300Z,100270.93
2017-07-20T10:38:02.695Z,100272.41
2017-07-20T10:40:30.095Z,100275.86
2017-07-20T10:42:57.497Z,100276.27
2017-07-20T10:45:24.891Z,100276.45
2017-07-20T10:47:52.294Z,100280.80
2017-07-20T10:50:19.691Z,100285.30
2017-07-20T10:52:47.103Z,100284.35
2017-07-20T10:55:14.514Z,100278.48
2017-07-20T10:57:41.923Z,100280.42
2017-07-20T11:00:09.314Z,100277.36
2017-07-20T11:02:36.724Z,100272.03
2017-07-20T11:05:04.125Z,100268.70
2017-07-20T11:07:31.525Z,100269.81
2017-07-20T11:09:58.926Z,100266.53
2017-07-20T11:12:26.323Z,100261.59
2017-07-20T11:14:53.732Z,100260.66
2017-07-20T11:17:21.122Z,100263.99
2017-07-20T11:19:48.535Z,100259.08
2017-07-20T11:22:15.926Z,100251.78
2017-07-20T11:24:43.327Z,100250.44
2017-07-20T11:27:10.734Z,100249.48
2017-07-20T11:29:38.131Z,100253.69
2017-07-20T11:32:05.522Z,100252.92
2017-07-20T11:34:32.935Z,100256.44
2017-07-20T11:37:00.356Z,100255.00
2017-07-20T11:39:27.767Z,100265.78
2017-07-20T11:41:55.157Z,100260.74
2017-07-20T11:44:22.569Z,100270.75
2017-07-20T11:46:49.971Z,100268.18
2017-07-20T11:49:17.374Z,100263.51
2017-07-20T11:51:44.983Z,100260.87
2017-07-20T11:54:12.386Z,100256.16
2017-07-20T11:56:39.786Z,100262.28
2017-07-20T11:59:07.187Z,100256.00
2017-07-20T12:01:34.607Z,100249.44
2017-07-20T12:04:01.995Z,100243.03
2017-07-20T12:06:29.410Z,100240.41
2017-07-20T12:08:56.799Z,100242.27
2017-07-20T12:11:24.193Z,100236.41
2017-07-20T12:13:51.607Z,100250.13
2017-07-20T12:16:19.007Z,100250.08
2017-07-20T12:18:46.419Z,100250.83
2017-07-20T12:21:13.816Z,100258.47
2017-07-20T12:23:41.223Z,100245.91
2017-07-20T12:26:08.622Z,100243.47
2017-07-20T12:28:36.031Z,100243.11
2017-07-20T12:31:03.428Z,100241.86
2017-07-20T12:33:30.834Z,100235.47
2017-07-20T12:35:58.237Z,100237.64
2017-07-20T12:38:25.634Z,100242.41
2017-07-20T12:40:53.027Z,100243.45
2017-07-20T12:43:20.455Z,100238.34
2017-07-20T12:45:47.846Z,100240.85
2017-07-20T12:48:15.243Z,100236.30
2017-07-20T12:50:42.648Z,100246.38
2017-07-20T12:53:10.047Z,100240.63
2017-07-20T12:55:37.446Z,100238.89
2017-07-20T12:58:04.843Z,100236.14
2017-07-20T13:00:32.254Z,100243.06
2017-07-20T13:02:59.630Z,100238.22
2017-07-20T13:05:27.034Z,100239.53
2017-07-20T13:07:54.435Z,100241.63
2017-07-20T13:10:21.822Z,100239.23
2017-07-20T13:12:49.219Z,100245.09
2017-07-20T13:15:16.834Z,100247.04
2017-07-20T13:17:44.235Z,100249.67
2017-07-20T13:20:11.632Z,100243.10
2017-07-20T13:22:39.826Z,100241.17
2017-07-20T13:25:07.228Z,100237.17
2017-07-20T13:27:34.631Z,100236.45
2017-07-20T13:30:02.030Z,100237.22
2017-07-20T13:32:29.684Z,100235.88
2017-07-20T13:34:57.075Z,100242.29
2017-07-20T13:37:24.487Z,100247.08
2017-07-20T13:39:51.909Z,100242.34
2017-07-20T13:42:19.317Z,100237.28
2017-07-20T13:44:46.744Z,100241.67
2017-07-20T13:47:14.142Z,100237.58
2017-07-20T13:49:41.538Z,100234.77
2017-07-20T13:52:08.930Z,100233.70
2017-07-20T13:54:36.331Z,100237.58
2017-07-20T13:57:03.726Z,100238.67
2017-07-20T13:59:31.139Z,100232.32
2017-07-20T14:01:58.527Z,100234.34
2017-07-20T14:04:25.931Z,100231.64
2017-07-20T14:06:53.326Z,100233.21
2017-07-20T14:09:20.730Z,100231.77
2017-07-20T14:11:48.118Z,100227.01
2017-07-20T14:14:15.531Z,100220.93
2017-07-20T14:16:43.162Z,100225.62
2017-07-20T14:19:10.562Z,100222.95
2017-07-20T14:21:37.970Z,100228.78
2017-07-20T14:24:05.432Z,100223.95
2017-07-20T14:26:32.831Z,100216.78
2017-07-20T14:29:00.227Z,100218.88
2017-07-20T14:31:27.636Z,100220.55
2017-07-20T14:33:55.022Z,100213.80
2017-07-20T14:36:22.430Z,100211.14
2017-07-20T14:38:49.825Z,100209.67
2017-07-20T14:41:17.231Z,100207.69
2017-07-20T14:43:44.631Z,100206.03
2017-07-20T14:46:12.046Z,100203.95
2017-07-20T14:48:39.678Z,100199.67
2017-07-20T14:51:07.084Z,100193.52
2017-07-20T14:53:34.491Z,100197.38
2017-07-20T14:56:01.894Z,100191.84
2017-07-20T14:58:29.300Z,100186.61
2017-07-20T15:00:56.694Z,100181.73
2017-07-20T15:03:24.091Z,100185.98
2017-07-20T15:05:51.527Z,100180.22
2017-07-20T15:08:18.919Z,100184.09
2017-07-20T15:10:46.312Z,100182.22
2017-07-20T15:13:13.722Z,100173.21
2017-07-20T15:15:41.133Z,100169.78
2017-07-20T15:18:08.506Z,100176.20
2017-07-20T15:20:35.906Z,100174.83
2017-07-20T15:23:03.304Z,100169.93
2017-07-20T15:25:30.699Z,100168.23
2017-07-20T15:27:58.095Z,100161.41
2017-07-20T15:30:25.595Z,100167.75
2017-07-20T15:32:52.988Z,100168.61
2017-07-20T15:35:20.392Z,100162.63
2017-07-20T15:37:47.789Z,100160.65
2017-07-20T15:40:15.230Z,100153.98
2017-07-20T15:42:42.617Z,100154.28
2017-07-20T15:45:10.018Z,100152.51
2017-07-20T15:47:37.406Z,100142.83
2017-07-20T15:50:04.795Z,100152.06
2017-07-20T15:52:32.183Z,100148.78
2017-07-20T15:54:59.574Z,100136.61
2017-07-20T15:57:26.974Z,100137.89
2017-07-20T15:59:54.358Z,100140.69
2017-07-20T16:02:21.773Z,100135.19
2017-07-20T16:04:49.157Z,100133.00
2017-07-20T16:07:16.563Z,100130.20
2017-07-20T16:09:43.959Z,100138.22
2017-07-20T16:12:11.355Z,100139.84
2017-07-20T16:14:38.743Z,100146.02
2017-07-20T16:17:06.158Z,100140.00
2017-07-20T16:19:33.555Z,100140.50
2017-07-20T16:22:00.962Z,100141.91
2017-07-20T16:24:28.366Z,100150.65
2017-07-20T16:26:55.755Z,100151.89
2017-07-20T16:29:23.158Z,100145.05
2017-07-20T16:31:50.546Z,100146.61
2017-07-20T16:34:17.958Z,100137.61
2017-07-20T16:36:45.352Z,100128.65
2017-07-20T16:39:12.755Z,100127.05
2017-07-20T16:41:40.462Z,100131.27
2017-07-20T16:44:08.058Z,100129.82
2017-07-20T16:46:35.452Z,100132.17
2017-07-20T16:49:02.851Z,100144.44
2017-07-20T16:51:30.255Z,100196.84
2017-07-20T16:53:57.654Z,100192.80
2017-07-20T16:56:25.047Z,100221.39
2017-07-20T16:58:52.438Z,100229.58
2017-07-20T17:01:19.847Z,100210.09
2017-07-20T17:03:47.243Z,100200.05
2017-07-20T17:06:14.644Z,100199.28
2017-07-20T17:08:42.038Z,100207.63
2017-07-20T17:11:09.431Z,100202.23
2017-07-20T17:13:36.839Z,100198.59
2017-07-20T17:16:04.238Z,100206.41
2017-07-20T17:18:31.634Z,100206.78
2017-07-20T17:20:59.031Z,100207.75
2017-07-20T17:23:26.414Z,100216.09
2017-07-20T17:25:53.822Z,100226.87
2017-07-20T17:28:21.211Z,100235.14
2017-07-20T17:30:48.618Z,100229.23
2017-07-20T17:33:15.994Z,100237.98
2017-07-20T17:35:43.595Z,100256.66
2017-07-20T17:38:11.951Z,100286.75
2017-07-20T17:40:39.335Z,100299.52
2017-07-20T17:43:06.738Z,100299.39
2017-07-20T17:45:34.120Z,100294.09
2017-07-20T17:48:01.735Z,100283.18
2017-07-20T17:50:29.447Z,100272.89
2017-07-20T17:52:56.848Z,100260.94
2017-07-20T17:55:24.241Z,100254.58
2017-07-20T17:57:51.663Z,100250.71
2017-07-20T18:00:19.067Z,100248.91
2017-07-20T18:02:46.471Z,100248.67
2017-07-20T18:05:13.865Z,100237.40
2017-07-20T18:07:41.239Z,100234.34
2017-07-20T18:10:08.658Z,100239.80
2017-07-20T18:12:36.043Z,100235.69
2017-07-20T18:15:03.453Z,100242.05
2017-07-20T18:17:30.834Z,100237.94
2017-07-20T18:19:58.235Z,100240.98
2017-07-20T18:22:25.626Z,100244.03
2017-07-20T18:24:53.042Z,100236.11
2017-07-20T18:27:20.439Z,100243.92
2017-07-20T18:29:47.827Z,100241.33
2017-07-20T18:32:15.231Z,100247.58
2017-07-20T18:34:42.846Z,100252.49
2017-07-20T18:37:10.252Z,100254.89
2017-07-20T18:39:37.636Z,100261.66
2017-07-20T18:42:05.047Z,100261.44
2017-07-20T18:44:32.650Z,100270.41
2017-07-20T18:47:00.042Z,100274.84
2017-07-20T18:49:27.430Z,100274.06
2017-07-20T18:51:54.823Z,100279.91
2017-07-20T18:54:22.258Z,100276.66
2017-07-20T18:56:49.678Z,100280.94
2017-07-20T18:59:17.051Z,100281.95
2017-07-20T19:01:45.499Z,100284.33
2017-07-20T19:04:12.894Z,100283.23
2017-07-20T19:06:40.282Z,100283.14
2017-07-20T19:09:07.680Z,100302.70
2017-07-20T19:11:35.066Z,100303.14
2017-07-20T19:14:02.474Z,100302.56
2017-07-20T19:16:29.867Z,100305.37
2017-07-20T19:18:57.260Z,100307.14
2017-07-20T19:21:24.654Z,100312.92
2017-07-20T19:23:52.059Z,100312.32
2017-07-20T19:26:19.754Z,100316.88
2017-07-20T19:28:47.147Z,100313.22
2017-07-20T19:31:14.531Z,100317.04
2017-07-20T19:33:41.914Z,100317.23
2017-07-20T19:36:09.311Z,100314.93
2017-07-20T19:38:36.723Z,100316.77
2017-07-20T19:41:04.118Z,100329.28
2017-07-20T19:43:31.511Z,100329.08
2017-07-20T19:45:58.910Z,100334.89
2017-07-20T19:48:26.295Z,100340.84
2017-07-20T19:50:53.687Z,100349.11
2017-07-20T19:53:21.075Z,100355.42
2017-07-20T19:55:48.475Z,100360.28
2017-07-20T19:58:15.859Z,100357.44
2017-07-20T20:00:43.519Z,100361.56
2017-07-20T20:03:10.906Z,100363.78
2017-07-20T20:05:38.296Z,100362.20
2017-07-20T20:08:05.699Z,100370.70
2017-07-20T20:10:33.082Z,100365.30
2017-07-20T20:13:00.474Z,100379.98
2017-07-20T20:15:27.959Z,100378.22
2017-07-20T20:17:55.356Z,100386.80
2017-07-20T20:20:22.739Z,100392.54
2017-07-20T20:22:50.138Z,100389.27
2017-07-20T20:25:17.534Z,100399.70
2017-07-20T20:27:44.934Z,100408.60
2017-07-20T20:30:12.348Z,100401.52
2017-07-20T20:32:39.767Z,100396.76
2017-07-20T20:35:07.151Z,100400.98
2017-07-20T20:37:34.542Z,100397.45
2017-07-20T20:40:01.940Z,100401.15
2017-07-20T20:42:29.335Z,100411.62
2017-07-20T20:44:56.746Z,100410.63
2017-07-20T20:47:24.127Z,100414.72
2017-07-20T20:49:51.531Z,100406.16
2017-07-20T20:52:18.935Z,100404.38
2017-07-20T20:54:46.338Z,100415.66
2017-07-20T20:57:13.734Z,100412.67
2017-07-20T20:59:41.135Z,100408.67
2017-07-20T21:02:08.522Z,100413.69
2017-07-20T21:04:35.927Z,100415.94
2017-07-20T21:07:03.722Z,100410.30
2017-07-20T21:09:31.115Z,100410.30
2017-07-20T21:11:58.507Z,100400.14
2017-07-20T21:14:25.899Z,100411.91
2017-07-20T21:16:53.295Z,100404.24
2017-07-20T21:19:20.678Z,100406.63
2017-07-20T21:21:48.077Z,100400.05
2017-07-20T21:24:15.467Z,100405.61
2017-07-20T21:26:42.883Z,100406.81
2017-07-20T21:29:10.251Z,100412.05
2017-07-20T21:31:37.922Z,100405.88
2017-07-20T21:34:05.301Z,100407.16
2017-07-20T21:36:32.690Z,100408.05
2017-07-20T21:39:00.075Z,100410.70
2017-07-20T21:41:27.467Z,100413.86
2017-07-20T21:43:54.851Z,100410.34
2017-07-20T21:46:22.274Z,100415.88
2017-07-20T21:48:49.671Z,100412.10
2017-07-20T21:51:17.069Z,100413.34
2017-07-20T21:53:44.468Z,100417.11
2017-07-20T21:56:11.859Z,100424.19
2017-07-20T21:58:39.251Z,100426.08
2017-07-20T22:01:06.647Z,100419.56
2017-07-20T22:03:34.311Z,100416.43
2017-07-20T22:06:01.699Z,100416.56
2017-07-20T22:08:29.093Z,100422.75
2017-07-20T22:10:56.482Z,100423.06
2017-07-20T22:13:23.875Z,100441.94
2017-07-20T22:15:51.262Z,100436.44
2017-07-20T22:18:18.674Z,100427.56
2017-07-20T22:20:46.056Z,100442.38
2017-07-20T22:23:13.445Z,100443.95
2017-07-20T22:25:40.844Z,100450.27
2017-07-20T22:28:08.235Z,100456.92
2017-07-20T22:30:36.096Z,100448.95
2017-07-20T22:33:03.698Z,100461.97
2017-07-20T22:35:31.252Z,100475.65
2017-07-20T22:37:58.647Z,100481.05
2017-07-20T22:40:26.059Z,100474.66
2017-07-20T22:42:53.454Z,100483.11
2017-07-20T22:45:20.863Z,100485.84
2017-07-20T22:47:48.254Z,100496.43
2017-07-20T22:50:15.659Z,100497.03
2017-07-20T22:52:43.042Z,100507.89
2017-07-20T22:55:10.446Z,100500.67
2017-07-20T22:57:37.850Z,100511.84
2017-07-20T23:00:05.258Z,100524.78
2017-07-20T23:02:32.646Z,100533.17
2017-07-20T23:05:00.060Z,100525.50
2017-07-20T23:07:27.478Z,100532.89
2017-07-20T23:09:54.863Z,100542.58
2017-07-20T23:12:22.296Z,100535.55
2017-07-20T23:14:49.691Z,100541.41
2017-07-20T23:17:17.098Z,100538.47
2017-07-20T23:19:44.495Z,100546.19
2017-07-20T23:22:11.887Z,100546.13
2017-07-20T23:24:39.288Z,100550.16
2017-07-20T23:27:06.684Z,100547.17
2017-07-20T23:29:34.066Z,100545.33
2017-07-20T23:32:01.478Z,100556.83
2017-07-20T23:34:28.871Z,100557.79
2017-07-20T23:36:56.262Z,100565.78
2017-07-20T23:39:23.667Z,100562.78
2017-07-20T23:41:51.064Z,100566.76
2017-07-20T23:44:18.459Z,100572.16
2017-07-20T23:46:45.858Z,100573.86
2017-07-20T23:49:13.251Z,100581.14
2017-07-20T23:51:40.654Z,100584.68
2017-07-20T23:54:08.051Z,100584.12
2017-07-20T23:56:35.450Z,100587.19
2017-07-20T23:59:02.866Z,100593.81
